Time;durP1;ratioP1;P1;durP2;ratioP2;P2;SDS_P1;SDS_P2;PMS_P1;PMS_P2;Temp;Humidity;BMP_temperature;BMP_pressure;BME280_temperature;BME280_humidity;BME280_pressure;Samples;Min_cycle;Max_cycle;Signal;HPM_P1;HPM_P2
2022/11/01 00:01:06;;;;;;;9.48;4.50;;;14.00;99.90;;;;;;4992807;28;20015;-55
2022/11/01 00:03:32;;;;;;;10.30;5.30;;;14.10;99.90;;;;;;4992370;28;20478;-55
2022/11/01 00:05:58;;;;;;;10.00;5.47;;;14.10;99.90;;;;;;4993017;28;20022;-54
2022/11/01 00:08:23;;;;;;;8.00;4.78;;;14.10;99.90;;;;;;4992559;28;20026;-56
2022/11/01 00:10:49;;;;;;;9.48;5.28;;;14.20;99.90;;;;;;4992516;28;20173;-57
2022/11/01 00:13:15;;;;;;;9.00;4.93;;;14.20;99.90;;;;;;4992562;28;20096;-57
2022/11/01 00:15:41;;;;;;;9.70;4.90;;;14.30;99.90;;;;;;4992721;28;20029;-54
2022/11/01 00:18:06;;;;;;;10.43;4.88;;;14.30;99.90;;;;;;4992438;28;20029;-55
2022/11/01 00:20:33;;;;;;;11.18;5.15;;;14.30;99.90;;;;;;4992610;28;20022;-55
2022/11/01 00:22:59;;;;;;;10.73;5.35;;;14.30;99.90;;;;;;4992607;28;20486;-55
2022/11/01 00:25:24;;;;;;;11.63;5.35;;;14.30;99.90;;;;;;4992174;28;20030;-52
2022/11/01 00:27:50;;;;;;;9.45;5.07;;;14.30;99.90;;;;;;4992851;28;20482;-54
2022/11/01 00:30:15;;;;;;;10.48;4.22;;;14.30;99.90;;;;;;4991375;28;20509;-52
2022/11/01 00:32:41;;;;;;;9.98;5.13;;;14.30;99.90;;;;;;4991960;28;20031;-53
2022/11/01 00:35:07;;;;;;;9.80;4.10;;;14.30;99.90;;;;;;4992429;28;20037;-56
2022/11/01 00:37:32;;;;;;;9.13;4.65;;;14.30;99.90;;;;;;4992003;28;20105;-51
2022/11/01 00:39:58;;;;;;;10.05;5.47;;;14.30;99.90;;;;;;4992560;28;20089;-53
2022/11/01 00:42:23;;;;;;;7.88;4.72;;;14.30;99.90;;;;;;4992460;28;20061;-55
2022/11/01 00:44:49;;;;;;;8.25;4.30;;;14.30;99.90;;;;;;4991767;28;20041;-50
2022/11/01 00:47:15;;;;;;;9.35;4.65;;;14.40;99.90;;;;;;4992367;28;20027;-50
2022/11/01 00:49:40;;;;;;;9.00;4.55;;;14.30;99.90;;;;;;4992550;28;20422;-50
2022/11/01 00:52:06;;;;;;;9.32;5.68;;;14.30;99.90;;;;;;4991388;28;20417;-53
2022/11/01 00:54:31;;;;;;;8.32;5.15;;;14.40;99.90;;;;;;4992542;28;20035;-58
2022/11/01 00:56:57;;;;;;;9.85;5.00;;;14.40;99.90;;;;;;4974579;28;20109;-57
2022/11/01 00:59:22;;;;;;;9.98;4.65;;;14.40;99.90;;;;;;4992062;28;20474;-58
2022/11/01 01:01:48;;;;;;;8.38;4.68;;;14.40;99.90;;;;;;4992290;28;20468;-58
2022/11/01 01:04:13;;;;;;;9.45;5.05;;;14.40;99.90;;;;;;4992339;28;20418;-63
2022/11/01 01:06:39;;;;;;;10.82;5.28;;;14.40;99.90;;;;;;4992039;28;20066;-58
2022/11/01 01:09:04;;;;;;;11.05;4.80;;;14.50;99.90;;;;;;4992416;28;20053;-57
2022/11/01 01:11:30;;;;;;;9.77;4.72;;;14.50;99.90;;;;;;4991909;28;20023;-59
2022/11/01 01:13:56;;;;;;;10.00;4.60;;;14.50;99.90;;;;;;4991647;28;20041;-63
2022/11/01 01:16:22;;;;;;;9.35;4.72;;;14.50;99.90;;;;;;4992341;28;20113;-59
2022/11/01 01:18:47;;;;;;;11.05;4.75;;;14.50;99.90;;;;;;4991941;28;20169;-60
2022/11/01 01:21:14;;;;;;;7.78;4.53;;;14.50;99.90;;;;;;4991745;28;20054;-59
2022/11/01 01:23:40;;;;;;;7.35;4.25;;;14.60;99.90;;;;;;4992188;28;20073;-57
2022/11/01 01:26:07;;;;;;;9.00;4.88;;;14.50;99.90;;;;;;4992170;28;20041;-57
2022/11/01 01:28:33;;;;;;;12.32;5.53;;;14.60;99.90;;;;;;4991602;28;20026;-51
2022/11/01 01:30:58;;;;;;;11.07;4.88;;;14.60;99.90;;;;;;4992144;28;20034;-53
2022/11/01 01:33:24;;;;;;;10.63;4.88;;;14.60;99.90;;;;;;4991541;28;20045;-54
2022/11/01 01:35:49;;;;;;;8.38;5.07;;;14.60;99.90;;;;;;4991487;28;20029;-50
2022/11/01 01:38:15;;;;;;;12.48;5.93;;;14.70;99.90;;;;;;4991971;28;20030;-59
2022/11/01 01:40:40;;;;;;;9.68;5.18;;;14.70;99.90;;;;;;4992361;28;20113;-55
2022/11/01 01:43:13;;;;;;;9.68;4.95;;;14.70;99.90;;;;;;4995213;28;20025;-52
2022/11/01 01:45:40;;;;;;;9.63;5.32;;;14.70;99.90;;;;;;4995205;28;20022;-55
2022/11/01 01:48:15;;;;;;;11.20;6.07;;;14.70;99.90;;;;;;4994501;28;20030;-53
2022/11/01 01:50:50;;;;;;;10.48;5.20;;;14.70;99.90;;;;;;4995417;28;20562;-59
2022/11/01 01:53:27;;;;;;;11.45;5.82;;;14.70;99.90;;;;;;4977378;28;20054;-55
2022/11/01 01:56:15;;;;;;;11.00;5.13;;;14.70;99.90;;;;;;4994733;28;20034;-54
2022/11/01 01:59:04;;;;;;;10.68;4.72;;;14.70;99.90;;;;;;4995300;28;20031;-55
2022/11/01 02:01:31;;;;;;;9.65;5.03;;;14.70;99.90;;;;;;4994757;28;20018;-54
2022/11/01 02:03:57;;;;;;;12.90;5.32;;;14.60;99.90;;;;;;4994893;28;20026;-55
2022/11/01 02:06:24;;;;;;;8.15;4.20;;;14.50;99.90;;;;;;4995022;28;20320;-54
2022/11/01 02:09:02;;;;;;;12.57;5.13;;;14.50;99.90;;;;;;4994904;28;20439;-55
2022/11/01 02:11:27;;;;;;;8.68;4.72;;;14.50;99.90;;;;;;4977504;28;20069;-55
2022/11/01 02:13:53;;;;;;;9.63;4.97;;;14.60;99.90;;;;;;4994795;28;20038;-52
2022/11/01 02:16:46;;;;;;;9.38;5.03;;;14.70;99.90;;;;;;4994534;28;20037;-63
2022/11/01 02:19:18;;;;;;;11.77;5.35;;;14.70;99.90;;;;;;4994891;28;20026;-54
2022/11/01 02:22:08;;;;;;;11.05;5.40;;;14.70;99.90;;;;;;4994367;28;20031;-56
2022/11/01 02:24:43;;;;;;;9.10;5.35;;;14.70;99.90;;;;;;4994425;28;20037;-54
2022/11/01 02:27:15;;;;;;;8.57;4.68;;;14.70;99.90;;;;;;4994556;28;20486;-57
2022/11/01 02:30:10;;;;;;;7.45;4.63;;;14.70;99.90;;;;;;4994341;28;20033;-55
2022/11/01 02:32:56;;;;;;;9.00;4.68;;;14.70;99.90;;;;;;4967029;28;20042;-55
2022/11/01 02:35:40;;;;;;;9.23;4.63;;;14.70;99.90;;;;;;4994433;28;20022;-56
2022/11/01 02:38:24;;;;;;;9.18;4.60;;;14.60;99.90;;;;;;4994167;28;20394;-51
2022/11/01 02:41:06;;;;;;;9.65;4.97;;;14.60;99.90;;;;;;4994512;28;20033;-57
2022/11/01 02:43:56;;;;;;;9.13;5.00;;;14.60;99.90;;;;;;4994069;28;20062;-52
2022/11/01 02:49:11;;;;;;;13.30;5.93;;;14.50;99.90;;;;;;4994156;28;20533;-55
2022/11/01 02:51:37;;;;;;;9.43;5.30;;;14.60;99.90;;;;;;4992993;28;20446;-53
2022/11/01 02:54:09;;;;;;;10.52;5.18;;;14.60;99.90;;;;;;4993766;28;20030;-54
2022/11/01 02:56:36;;;;;;;11.73;6.38;;;14.70;99.90;;;;;;4993804;28;20022;-55
2022/11/01 02:59:02;;;;;;;10.88;5.55;;;14.80;99.90;;;;;;4993864;28;20032;-60
2022/11/01 03:01:33;;;;;;;11.25;5.57;;;14.90;99.90;;;;;;4994117;28;20065;-55
2022/11/01 03:04:00;;;;;;;12.20;5.47;;;14.90;99.90;;;;;;4993823;28;20023;-54
2022/11/01 03:06:34;;;;;;;8.20;4.82;;;15.00;99.90;;;;;;4993541;28;20037;-60
2022/11/01 03:09:04;;;;;;;7.45;4.55;;;15.00;99.90;;;;;;4993898;28;20022;-60
2022/11/01 03:11:47;;;;;;;10.48;4.95;;;15.10;99.90;;;;;;4993664;28;20081;-59
2022/11/01 03:14:42;;;;;;;8.77;5.38;;;15.10;99.90;;;;;;4993207;28;20034;-60
2022/11/01 03:17:15;;;;;;;9.25;5.07;;;15.10;99.90;;;;;;4993826;28;20358;-53
2022/11/01 03:19:51;;;;;;;9.23;4.55;;;15.00;99.90;;;;;;4975783;28;20034;-57
2022/11/01 03:22:31;;;;;;;11.90;4.97;;;15.10;99.90;;;;;;4993425;28;20022;-55
2022/11/01 03:25:37;;;;;;;7.53;4.45;;;15.10;99.90;;;;;;4993312;28;20514;-64
2022/11/01 03:27:58;;;;;;;10.95;5.03;;;15.10;99.90;;;;;;4993161;28;20046;-53
2022/11/01 03:30:23;;;;;;;9.68;4.70;;;15.10;99.90;;;;;;4993202;28;20030;-54
2022/11/01 03:32:53;;;;;;;7.45;4.80;;;15.10;99.90;;;;;;4993159;28;20034;-55
2022/11/01 03:35:24;;;;;;;7.97;4.13;;;15.10;99.90;;;;;;4992997;28;20032;-66
2022/11/01 03:37:54;;;;;;;9.40;4.63;;;15.10;99.90;;;;;;4993325;28;20113;-61
2022/11/01 03:40:23;;;;;;;7.63;4.13;;;15.00;99.90;;;;;;4993052;28;20458;-62
2022/11/01 03:42:52;;;;;;;9.98;4.78;;;15.00;99.90;;;;;;4993262;28;20031;-53
2022/11/01 03:45:23;;;;;;;9.48;4.60;;;15.00;99.90;;;;;;4992871;28;20425;-54
2022/11/01 03:47:48;;;;;;;7.35;3.85;;;15.00;99.90;;;;;;4992970;28;20030;-53
2022/11/01 03:50:26;;;;;;;11.10;5.25;;;15.10;99.90;;;;;;4993381;28;20033;-58
2022/11/01 03:52:52;;;;;;;7.93;4.78;;;15.00;99.90;;;;;;4975526;28;20442;-58
2022/11/01 03:55:19;;;;;;;10.30;4.97;;;15.00;99.90;;;;;;4992627;28;20025;-56
2022/11/01 03:57:55;;;;;;;9.52;4.78;;;15.00;99.90;;;;;;4993218;28;20057;-61
2022/11/01 04:00:47;;;;;;;8.90;4.85;;;15.10;99.90;;;;;;4992782;28;20030;-54
2022/11/01 04:03:13;;;;;;;9.38;4.75;;;15.10;99.90;;;;;;4988519;28;20037;-54
2022/11/01 04:05:40;;;;;;;8.05;4.15;;;15.10;99.90;;;;;;4992993;28;20030;-55
2022/11/01 04:08:06;;;;;;;9.65;4.93;;;15.10;99.90;;;;;;4975125;28;20027;-52
2022/11/01 04:10:32;;;;;;;8.40;4.10;;;15.10;99.90;;;;;;4992563;28;20485;-50
2022/11/01 04:12:59;;;;;;;7.80;4.03;;;15.20;99.90;;;;;;4992386;28;20483;-59
2022/11/01 04:21:12;;;;;;;8.13;4.10;;;15.20;99.90;;;;;;4992334;28;20116;-56
2022/11/01 04:23:38;;;;;;;8.48;4.40;;;15.30;99.90;;;;;;4992135;28;20022;-51
2022/11/01 04:26:04;;;;;;;6.93;3.80;;;15.30;99.90;;;;;;4992761;28;20030;-58
2022/11/01 04:28:30;;;;;;;7.70;3.85;;;15.40;99.90;;;;;;4992270;28;20032;-56
2022/11/01 04:30:56;;;;;;;6.88;3.50;;;15.40;99.90;;;;;;4992333;28;20394;-57
2022/11/01 04:33:22;;;;;;;8.27;3.85;;;15.40;99.90;;;;;;4992269;28;20117;-56
2022/11/01 04:35:47;;;;;;;6.68;3.90;;;15.40;99.90;;;;;;4992419;28;20027;-53
2022/11/01 04:38:13;;;;;;;6.65;3.42;;;15.50;99.90;;;;;;4991873;28;20027;-55
2022/11/01 04:40:40;;;;;;;8.02;3.75;;;15.40;99.90;;;;;;4992630;28;20054;-56
2022/11/01 04:43:06;;;;;;;7.10;3.38;;;15.50;99.90;;;;;;4992509;28;20105;-54
2022/11/01 04:45:32;;;;;;;7.22;3.38;;;15.50;99.90;;;;;;4992135;28;20072;-56
2022/11/01 04:48:04;;;;;;;7.63;3.60;;;15.50;99.90;;;;;;4992312;28;20109;-53
2022/11/01 04:50:31;;;;;;;7.32;3.63;;;15.50;99.90;;;;;;4992212;28;20026;-52
2022/11/01 04:53:00;;;;;;;4.18;2.40;;;15.50;99.90;;;;;;4991819;28;20437;-51
2022/11/01 04:55:26;;;;;;;5.47;2.17;;;15.50;99.90;;;;;;4992030;28;20441;-51
2022/11/01 04:57:52;;;;;;;2.35;1.55;;;15.40;99.90;;;;;;4991884;28;20026;-53
2022/11/01 05:00:18;;;;;;;2.67;1.30;;;15.50;99.90;;;;;;4992241;28;20034;-56
2022/11/01 05:02:43;;;;;;;5.03;1.83;;;15.50;99.10;;;;;;4991928;28;20033;-58
2022/11/01 05:05:10;;;;;;;3.65;1.20;;;15.40;98.10;;;;;;4992020;28;20030;-60
2022/11/01 05:07:36;;;;;;;2.97;0.90;;;15.40;97.80;;;;;;4992228;28;20081;-59
2022/11/01 05:10:02;;;;;;;2.30;0.75;;;15.30;97.20;;;;;;4992224;28;20038;-60
2022/11/01 05:12:28;;;;;;;1.88;0.95;;;15.30;96.60;;;;;;4991756;28;20030;-56
2022/11/01 05:14:53;;;;;;;1.10;0.80;;;15.20;95.90;;;;;;4992424;28;20026;-57
2022/11/01 05:17:19;;;;;;;4.65;0.90;;;15.10;95.80;;;;;;4995482;28;20627;-64
2022/11/01 05:19:44;;;;;;;1.55;0.90;;;15.00;95.20;;;;;;4995670;28;20434;-64
2022/11/01 05:22:10;;;;;;;2.95;1.15;;;15.00;95.10;;;;;;4994245;28;20478;-65
2022/11/01 05:24:36;;;;;;;2.28;0.80;;;15.00;95.10;;;;;;4995250;28;20022;-65
2022/11/01 05:27:01;;;;;;;2.70;1.00;;;14.90;95.10;;;;;;4993747;28;20113;-63
2022/11/01 05:29:27;;;;;;;1.00;0.60;;;14.90;95.30;;;;;;4995714;28;20011;-57
2022/11/01 05:31:53;;;;;;;2.40;0.73;;;14.90;95.40;;;;;;4979357;28;20030;-62
2022/11/01 05:34:19;;;;;;;2.58;0.77;;;14.80;95.60;;;;;;4975800;28;20505;-51
2022/11/01 05:36:45;;;;;;;1.65;0.70;;;14.70;95.80;;;;;;4979358;28;20025;-61
2022/11/01 05:39:10;;;;;;;4.00;0.98;;;14.70;96.00;;;;;;4995453;28;20027;-57
2022/11/01 05:41:36;;;;;;;1.73;0.98;;;14.60;96.20;;;;;;4994458;28;20037;-64
2022/11/01 05:44:02;;;;;;;3.60;0.80;;;14.50;96.30;;;;;;4994850;28;20033;-53
2022/11/01 05:46:27;;;;;;;1.08;0.68;;;14.40;96.40;;;;;;4995231;28;20052;-64
2022/11/01 05:48:53;;;;;;;2.97;0.75;;;14.40;96.40;;;;;;4994956;28;20026;-56
2022/11/01 05:51:19;;;;;;;2.45;0.60;;;14.30;96.40;;;;;;4995074;28;20450;-60
2022/11/01 05:53:46;;;;;;;2.80;0.70;;;14.30;96.50;;;;;;4994548;28;20046;-56
2022/11/01 05:56:15;;;;;;;4.45;0.90;;;14.20;96.50;;;;;;4991135;28;20054;-56
2022/11/01 05:58:40;;;;;;;2.25;0.70;;;14.20;96.40;;;;;;4995139;28;20030;-68
2022/11/01 06:01:06;;;;;;;1.00;0.68;;;14.20;96.60;;;;;;4994659;28;20019;-66
2022/11/01 06:03:33;;;;;;;1.95;0.70;;;14.20;96.50;;;;;;4994705;28;20026;-64
2022/11/01 06:05:59;;;;;;;1.33;0.70;;;14.10;96.40;;;;;;4976697;28;20065;-56
2022/11/01 06:08:25;;;;;;;2.25;0.70;;;14.10;96.70;;;;;;4993906;28;20066;-57
2022/11/01 06:10:51;;;;;;;2.88;1.05;;;14.00;96.80;;;;;;4994460;28;20026;-58
2022/11/01 06:13:17;;;;;;;2.58;0.60;;;14.00;97.00;;;;;;4993645;28;20026;-55
2022/11/01 06:15:42;;;;;;;1.25;0.70;;;13.90;97.10;;;;;;4994328;28;20386;-69
2022/11/01 06:18:08;;;;;;;3.42;0.80;;;13.80;97.20;;;;;;4991455;28;20030;-65
2022/11/01 06:20:35;;;;;;;6.03;1.02;;;13.80;97.20;;;;;;4991560;28;20069;-64
2022/11/01 06:23:08;;;;;;;1.48;0.73;;;13.80;96.90;;;;;;4990523;28;20467;-62
2022/11/01 06:25:35;;;;;;;2.72;0.90;;;13.80;97.00;;;;;;4983251;28;20018;-68
2022/11/01 06:28:01;;;;;;;3.65;1.02;;;13.70;96.70;;;;;;4993008;28;20482;-67
2022/11/01 06:30:26;;;;;;;2.05;0.68;;;13.70;96.80;;;;;;4992978;28;20034;-63
2022/11/01 06:32:58;;;;;;;2.03;0.80;;;13.70;96.90;;;;;;4990704;28;20034;-66
2022/11/01 06:35:24;;;;;;;4.85;1.10;;;13.60;96.60;;;;;;4979385;28;20133;-69
2022/11/01 06:37:49;;;;;;;3.28;1.00;;;13.60;96.20;;;;;;4983484;28;20737;-66
2022/11/01 06:40:15;;;;;;;2.22;0.98;;;13.60;95.80;;;;;;4993600;28;20030;-70
2022/11/01 06:42:40;;;;;;;2.80;0.82;;;13.60;95.70;;;;;;4992051;28;20022;-58
2022/11/01 06:45:06;;;;;;;2.78;1.00;;;13.60;95.50;;;;;;4992866;28;20326;-61
2022/11/01 06:47:32;;;;;;;2.30;0.80;;;13.60;95.40;;;;;;4990389;28;20441;-56
2022/11/01 06:49:57;;;;;;;2.72;1.13;;;13.60;95.30;;;;;;4991102;28;20479;-61
2022/11/01 06:52:23;;;;;;;1.17;0.80;;;13.70;94.70;;;;;;4992141;28;20568;-65
2022/11/01 06:54:48;;;;;;;2.88;1.17;;;13.80;94.80;;;;;;4991771;28;20178;-68
2022/11/01 06:57:14;;;;;;;3.13;0.75;;;13.80;94.40;;;;;;4992566;28;20106;-63
2022/11/01 06:59:40;;;;;;;3.83;0.68;;;13.80;94.90;;;;;;4991698;28;20042;-58
2022/11/01 07:02:06;;;;;;;3.33;0.90;;;13.70;94.70;;;;;;4990389;28;20033;-58
2022/11/01 07:04:32;;;;;;;1.70;1.00;;;13.60;94.70;;;;;;4986968;28;20065;-55
2022/11/01 07:06:57;;;;;;;3.85;1.48;;;13.60;94.90;;;;;;4991995;28;20030;-54
2022/11/01 07:09:23;;;;;;;3.70;1.00;;;13.50;95.10;;;;;;4993442;28;20045;-54
2022/11/01 07:11:48;;;;;;;1.40;0.73;;;13.50;95.30;;;;;;4991434;28;20494;-49
2022/11/01 07:14:14;;;;;;;3.05;1.05;;;13.40;95.40;;;;;;4988801;28;20545;-57
2022/11/01 07:16:40;;;;;;;4.68;1.15;;;13.40;95.40;;;;;;4992689;28;20128;-57
2022/11/01 07:19:05;;;;;;;2.97;1.00;;;13.40;95.30;;;;;;4992409;28;20359;-59
2022/11/01 07:21:31;;;;;;;4.25;1.17;;;13.40;95.20;;;;;;4975116;28;20029;-63
2022/11/01 07:23:56;;;;;;;3.47;1.17;;;13.40;95.00;;;;;;4992793;28;20026;-61
2022/11/01 07:26:22;;;;;;;2.78;1.20;;;13.40;94.80;;;;;;4992676;28;20023;-57
2022/11/01 07:28:47;;;;;;;5.82;1.55;;;13.40;94.50;;;;;;4988588;28;20034;-63
2022/11/01 07:31:13;;;;;;;5.75;1.00;;;13.40;94.20;;;;;;4990765;28;20122;-66
2022/11/01 07:33:39;;;;;;;3.53;0.85;;;13.50;93.90;;;;;;4972616;28;20034;-67
2022/11/01 07:36:04;;;;;;;5.75;1.10;;;13.50;93.70;;;;;;4993797;28;20494;-55
2022/11/01 07:38:31;;;;;;;3.67;1.50;;;13.50;93.40;;;;;;4992793;28;20482;-65
2022/11/01 07:40:56;;;;;;;5.15;0.80;;;13.60;93.50;;;;;;4992956;28;20117;-60
2022/11/01 07:43:22;;;;;;;4.45;1.38;;;13.60;93.40;;;;;;4993402;28;20027;-63
2022/11/01 07:45:48;;;;;;;6.82;1.88;;;13.50;93.50;;;;;;4992958;28;20033;-58
2022/11/01 07:48:16;;;;;;;8.30;1.23;;;13.60;93.70;;;;;;4975315;28;20032;-63
2022/11/01 07:50:42;;;;;;;5.72;1.08;;;13.50;93.60;;;;;;4993202;28;20018;-64
2022/11/01 07:53:11;;;;;;;3.42;1.05;;;13.50;93.70;;;;;;4992760;28;20080;-62
2022/11/01 07:55:37;;;;;;;4.72;1.20;;;13.60;93.80;;;;;;4992534;28;20030;-62
2022/11/01 07:58:04;;;;;;;3.78;0.80;;;13.50;93.90;;;;;;4992816;28;20034;-58
2022/11/01 08:00:30;;;;;;;4.05;1.38;;;13.50;94.00;;;;;;4992309;28;20474;-62
2022/11/01 08:03:07;;;;;;;4.20;1.10;;;13.50;94.10;;;;;;4992349;28;20049;-55
2022/11/01 08:05:34;;;;;;;4.03;0.80;;;13.50;94.10;;;;;;4992771;28;20042;-60
2022/11/01 08:08:00;;;;;;;3.40;1.05;;;13.60;94.30;;;;;;4992604;28;20073;-63
2022/11/01 08:10:27;;;;;;;5.05;1.10;;;13.60;94.30;;;;;;4992976;28;20038;-65
2022/11/01 08:13:06;;;;;;;2.97;0.70;;;13.60;94.20;;;;;;4992753;28;20041;-62
2022/11/01 08:15:32;;;;;;;6.28;1.38;;;13.60;94.20;;;;;;4992879;28;20027;-69
2022/11/01 08:17:58;;;;;;;4.35;1.33;;;13.60;94.00;;;;;;4993201;28;20475;-63
2022/11/01 08:20:25;;;;;;;5.70;1.45;;;13.60;94.10;;;;;;4990376;28;20026;-62
2022/11/01 08:22:52;;;;;;;5.35;1.58;;;13.70;94.20;;;;;;4991832;28;20057;-61
2022/11/01 08:25:17;;;;;;;5.20;1.20;;;13.70;94.10;;;;;;4990003;28;20682;-61
2022/11/01 08:27:43;;;;;;;6.00;1.33;;;13.70;93.90;;;;;;4990236;28;20030;-60
2022/11/01 08:30:09;;;;;;;8.15;1.30;;;13.70;93.80;;;;;;4990685;28;20081;-61
2022/11/01 08:32:35;;;;;;;7.43;1.30;;;13.70;93.80;;;;;;4986734;28;20078;-60
2022/11/01 08:35:01;;;;;;;4.20;0.90;;;13.80;93.80;;;;;;4990920;28;20057;-54
2022/11/01 08:37:26;;;;;;;9.13;1.65;;;13.80;93.90;;;;;;4990057;28;20021;-62
2022/11/01 08:39:52;;;;;;;5.47;1.45;;;13.80;93.90;;;;;;4990611;28;20018;-57
2022/11/01 08:42:18;;;;;;;9.82;1.17;;;13.80;94.00;;;;;;4989986;28;20026;-57
2022/11/01 08:44:44;;;;;;;5.95;1.45;;;13.90;93.80;;;;;;4990513;28;20332;-58
2022/11/01 08:47:10;;;;;;;5.45;1.20;;;13.90;93.70;;;;;;4990655;28;20129;-52
2022/11/01 08:49:36;;;;;;;7.22;1.67;;;13.90;93.60;;;;;;4990482;28;20389;-62
2022/11/01 08:52:02;;;;;;;4.43;1.58;;;13.80;93.50;;;;;;4992785;28;20092;-59
2022/11/01 08:54:27;;;;;;;13.02;2.22;;;13.90;93.40;;;;;;4993067;28;20066;-61
2022/11/01 08:56:53;;;;;;;7.88;1.45;;;13.90;93.20;;;;;;4993317;28;20101;-57
2022/11/01 08:59:19;;;;;;;5.10;1.42;;;13.90;93.00;;;;;;4992990;28;20391;-63
2022/11/01 09:01:44;;;;;;;6.18;1.98;;;13.90;93.20;;;;;;4992889;28;20098;-57
2022/11/01 09:04:11;;;;;;;8.40;1.20;;;14.00;93.10;;;;;;4992857;28;20022;-57
2022/11/01 09:06:37;;;;;;;8.10;1.52;;;14.00;92.90;;;;;;4990903;28;20100;-56
2022/11/01 09:09:03;;;;;;;8.57;1.55;;;14.00;92.50;;;;;;4993183;28;20402;-62
2022/11/01 09:11:29;;;;;;;8.23;1.70;;;14.00;92.30;;;;;;4992447;28;20111;-56
2022/11/01 09:13:56;;;;;;;7.00;1.33;;;14.10;92.40;;;;;;4983563;28;20110;-60
2022/11/01 09:16:23;;;;;;;8.15;1.35;;;14.10;92.50;;;;;;4993292;28;20455;-60
2022/11/01 09:18:49;;;;;;;7.53;1.45;;;14.10;92.40;;;;;;4992560;28;20026;-56
2022/11/01 09:21:16;;;;;;;5.55;1.67;;;14.10;92.50;;;;;;4992362;28;20089;-56
2022/11/01 09:23:41;;;;;;;9.15;1.45;;;14.10;92.40;;;;;;4992917;28;20034;-52
2022/11/01 09:26:09;;;;;;;11.15;1.55;;;14.10;92.30;;;;;;4992380;28;20022;-62
2022/11/01 09:28:35;;;;;;;9.70;1.58;;;14.10;92.40;;;;;;4992986;28;20032;-58
2022/11/01 09:31:02;;;;;;;11.48;1.98;;;14.20;92.20;;;;;;4992700;28;20080;-60
2022/11/01 09:33:29;;;;;;;7.57;1.33;;;14.20;92.20;;;;;;4992293;28;20023;-57
2022/11/01 09:35:54;;;;;;;9.02;1.60;;;14.20;92.30;;;;;;4992733;28;20093;-56
2022/11/01 09:38:20;;;;;;;4.57;1.40;;;14.20;92.00;;;;;;4992618;28;20097;-63
2022/11/01 09:41:03;;;;;;;5.70;1.20;;;14.30;92.20;;;;;;4992311;28;20486;-66
2022/11/01 09:43:32;;;;;;;7.05;1.73;;;14.30;92.10;;;;;;4991015;28;20471;-64
2022/11/01 09:45:59;;;;;;;6.45;1.30;;;14.30;92.20;;;;;;4969799;28;20018;-58
2022/11/01 09:48:28;;;;;;;4.95;1.50;;;14.30;92.20;;;;;;4992040;28;20026;-60
2022/11/01 09:50:54;;;;;;;6.85;1.30;;;14.30;92.30;;;;;;4992295;28;20030;-68
2022/11/01 09:53:23;;;;;;;6.85;1.45;;;14.40;92.00;;;;;;4956214;28;1057882;-58
2022/11/01 09:56:09;;;;;;;6.05;1.85;;;14.40;92.10;;;;;;4993273;28;20454;-55
2022/11/01 09:59:04;;;;;;;8.48;1.40;;;14.40;91.80;;;;;;4992924;28;20124;-57
2022/11/01 10:01:55;;;;;;;6.15;1.13;;;14.50;91.90;;;;;;4992633;28;20475;-58
2022/11/01 10:04:38;;;;;;;7.60;1.80;;;14.50;91.80;;;;;;4990675;28;20030;-54
2022/11/01 10:07:18;;;;;;;8.07;1.45;;;14.50;91.70;;;;;;4993360;28;20030;-56
2022/11/01 10:10:23;;;;;;;5.63;1.65;;;14.50;91.60;;;;;;4993257;28;20112;-55
2022/11/01 10:12:54;;;;;;;7.35;1.45;;;14.50;91.50;;;;;;4991472;28;20042;-61
2022/11/01 10:15:44;;;;;;;3.22;1.20;;;14.60;91.30;;;;;;4992599;28;20033;-55
2022/11/01 10:18:28;;;;;;;5.25;1.05;;;14.60;91.40;;;;;;4992912;28;20022;-64
2022/11/01 10:21:00;;;;;;;10.13;1.55;;;14.60;91.50;;;;;;4993198;28;20068;-58
2022/11/01 10:23:49;;;;;;;6.38;1.75;;;14.60;91.40;;;;;;4992705;28;20886;-53
2022/11/01 10:26:44;;;;;;;8.10;1.48;;;14.70;91.30;;;;;;4992830;28;20022;-63
2022/11/01 10:29:19;;;;;;;7.65;1.50;;;14.70;91.10;;;;;;4989973;28;20034;-64
2022/11/01 10:31:49;;;;;;;7.78;1.70;;;14.70;91.10;;;;;;4992945;28;20033;-62
2022/11/01 10:34:38;;;;;;;12.93;2.58;;;14.70;91.00;;;;;;4992870;28;20027;-57
2022/11/01 10:37:27;;;;;;;7.28;1.40;;;14.80;90.60;;;;;;4990694;28;20022;-67
2022/11/01 10:39:58;;;;;;;5.15;1.45;;;14.80;90.70;;;;;;4991978;28;20124;-56
2022/11/01 10:42:27;;;;;;;7.28;1.38;;;14.80;90.80;;;;;;4990413;28;20061;-65
2022/11/01 10:44:57;;;;;;;9.35;1.95;;;14.90;90.70;;;;;;4992674;28;20015;-62
2022/11/01 10:47:24;;;;;;;12.20;1.45;;;14.80;90.80;;;;;;4990770;28;20029;-58
2022/11/01 10:50:10;;;;;;;11.98;1.80;;;14.90;90.60;;;;;;4974646;28;20114;-62
2022/11/01 10:52:48;;;;;;;5.80;1.23;;;14.90;90.40;;;;;;4976106;28;20046;-56
2022/11/01 10:55:25;;;;;;;6.70;1.23;;;14.90;90.30;;;;;;4992496;28;20030;-57
2022/11/01 10:57:56;;;;;;;7.30;1.42;;;15.00;90.20;;;;;;4990859;28;20498;-62
2022/11/01 11:00:22;;;;;;;11.75;1.75;;;15.00;90.10;;;;;;4992192;28;20109;-53
2022/11/01 11:03:01;;;;;;;8.30;1.83;;;15.00;90.10;;;;;;4992304;28;20042;-58
2022/11/01 11:05:29;;;;;;;7.60;1.73;;;15.00;90.20;;;;;;4991859;28;20497;-50
2022/11/01 11:07:56;;;;;;;6.72;1.50;;;15.00;89.80;;;;;;4991937;28;20034;-55
2022/11/01 11:10:27;;;;;;;6.45;1.70;;;15.00;90.00;;;;;;4992511;28;20046;-60
2022/11/01 11:13:03;;;;;;;6.50;1.52;;;15.00;90.20;;;;;;4991288;28;20058;-61
2022/11/01 11:15:59;;;;;;;7.15;1.70;;;15.10;90.20;;;;;;4991808;28;20018;-57
2022/11/01 11:18:29;;;;;;;10.27;1.65;;;15.00;90.20;;;;;;4989837;28;20026;-54
2022/11/01 11:20:58;;;;;;;6.85;1.52;;;15.10;90.20;;;;;;4992005;28;20073;-56
2022/11/01 11:23:31;;;;;;;3.83;1.25;;;15.10;90.30;;;;;;4991529;28;20041;-66
2022/11/01 11:26:07;;;;;;;9.45;1.67;;;15.10;90.30;;;;;;4991666;28;20378;-63
2022/11/01 11:28:41;;;;;;;7.10;1.25;;;15.20;90.40;;;;;;4974437;28;20011;-66
2022/11/01 11:31:30;;;;;;;6.75;1.20;;;15.20;90.30;;;;;;4992249;28;20089;-59
2022/11/01 11:34:03;;;;;;;6.57;1.55;;;15.30;90.30;;;;;;4990699;28;20074;-58
2022/11/01 11:36:33;;;;;;;6.30;1.27;;;15.20;90.20;;;;;;4971050;28;20069;-53
2022/11/01 11:38:59;;;;;;;6.03;2.13;;;15.20;90.10;;;;;;4991319;28;20026;-52
2022/11/01 11:41:30;;;;;;;9.13;1.55;;;15.30;90.30;;;;;;4991447;28;20026;-58
2022/11/01 11:43:56;;;;;;;10.35;1.50;;;15.30;90.50;;;;;;4991723;28;20041;-56
2022/11/01 11:46:23;;;;;;;7.93;1.52;;;15.30;90.00;;;;;;4991537;28;20086;-63
2022/11/01 11:49:08;;;;;;;10.23;1.70;;;15.30;89.90;;;;;;4991476;28;20088;-60
2022/11/01 11:51:39;;;;;;;12.48;2.00;;;15.40;90.10;;;;;;4988674;28;20046;-55
2022/11/01 11:54:31;;;;;;;10.05;1.70;;;15.30;90.00;;;;;;4989412;28;20034;-57
2022/11/01 11:57:17;;;;;;;9.02;1.75;;;15.30;90.10;;;;;;4973526;28;20026;-61
2022/11/01 11:59:44;;;;;;;10.15;1.75;;;15.40;90.10;;;;;;4990398;28;20025;-63
2022/11/01 12:02:38;;;;;;;8.63;1.30;;;15.40;90.10;;;;;;4991324;28;20019;-64
2022/11/01 12:05:07;;;;;;;2.80;0.82;;;15.50;89.30;;;;;;4988416;28;20486;-66
2022/11/01 12:07:54;;;;;;;5.93;1.40;;;15.40;89.00;;;;;;4991138;28;20032;-56
2022/11/01 12:10:31;;;;;;;8.30;1.58;;;15.50;88.90;;;;;;4990556;28;20042;-58
2022/11/01 12:12:56;;;;;;;5.65;1.20;;;15.50;89.00;;;;;;4990382;28;20034;-58
2022/11/01 12:15:29;;;;;;;8.25;1.75;;;15.50;88.80;;;;;;4991345;28;20366;-69
2022/11/01 12:17:56;;;;;;;7.03;1.42;;;15.50;87.70;;;;;;4973759;28;20205;-68
2022/11/01 12:20:34;;;;;;;7.65;1.73;;;15.50;88.10;;;;;;4988429;28;20525;-66
2022/11/01 12:23:11;;;;;;;6.13;1.40;;;15.50;88.50;;;;;;4991014;28;20176;-67
2022/11/01 12:25:40;;;;;;;5.72;1.33;;;15.60;89.00;;;;;;4990875;28;20022;-56
2022/11/01 12:28:36;;;;;;;7.45;1.42;;;15.60;88.90;;;;;;4990525;28;20030;-61
2022/11/01 12:31:15;;;;;;;5.72;1.58;;;15.60;88.30;;;;;;4982746;28;20037;-59
2022/11/01 12:33:56;;;;;;;8.27;1.45;;;15.70;87.60;;;;;;4990271;28;20031;-61
2022/11/01 12:37:09;;;;;;;4.28;1.38;;;15.80;87.30;;;;;;4988140;28;20028;-52
2022/11/01 12:39:53;;;;;;;8.05;1.50;;;15.80;87.50;;;;;;4989983;28;20037;-59
2022/11/01 12:42:27;;;;;;;3.67;1.55;;;15.80;87.30;;;;;;4990159;28;20073;-62
2022/11/01 12:44:59;;;;;;;5.95;1.15;;;15.90;87.30;;;;;;4990594;28;20046;-56
2022/11/01 12:47:45;;;;;;;5.47;1.83;;;15.90;87.20;;;;;;4987697;28;20026;-58
2022/11/01 12:50:47;;;;;;;6.55;1.50;;;15.90;86.70;;;;;;4989075;28;20023;-63
2022/11/01 12:53:18;;;;;;;6.88;1.30;;;15.80;87.20;;;;;;4989285;28;20046;-60
2022/11/01 12:55:43;;;;;;;9.52;1.02;;;15.80;86.80;;;;;;4987610;28;20098;-58
2022/11/01 12:58:14;;;;;;;4.65;1.40;;;15.80;86.90;;;;;;4990569;28;20122;-58
2022/11/01 13:01:07;;;;;;;9.10;1.73;;;15.90;86.40;;;;;;4990660;28;20018;-61
2022/11/01 13:04:01;;;;;;;4.28;1.33;;;15.90;86.20;;;;;;4990557;28;20509;-55
2022/11/01 13:06:57;;;;;;;4.47;1.10;;;15.80;86.60;;;;;;4988795;28;20386;-59
2022/11/01 13:09:33;;;;;;;4.68;1.25;;;15.80;86.20;;;;;;4986823;28;20053;-57
2022/11/01 13:12:12;;;;;;;3.75;1.20;;;15.90;86.30;;;;;;4990325;28;20458;-53